Barrier, Kentucky
Current Conditions -  °F | °C
As of 12:32 AM on Friday 28 Nov 2014 (Local Time) from KEKQ Reporting Station
Overcast Overcast  
Wind Chill: 23°   Ceiling: 2800
Heat Index: 28°   Visibility: 10mi
Dew Point: 21°   Wind: 5mph
Humidity: 74%   Direction: 280°W
Pressure: 30.45"   Gusts: NA
Location:  36.8129°N, 84.8215°W
Report Text: KEKQ 280532Z AUTO 28004KT 10SM OVC028 M02/M06 A3045 RMK AO2
Loading
Personal Weather Stations






























Interactive Weather Map New forecast layout! Learn more

10-Day Weather Forecast

Advertisements
Track Severe Weather on mobile